createdAt,value
2022-07-29T00:01:42.917Z,100390.16
2022-07-29T00:04:10.340Z,100386.89
2022-07-29T00:06:37.736Z,100385.46
2022-07-29T00:09:05.398Z,100385.65
2022-07-29T00:11:32.755Z,100384.11
2022-07-29T00:14:00.198Z,100382.43
2022-07-29T00:16:27.620Z,100380.59
2022-07-29T00:18:55.115Z,100386.31
2022-07-29T00:21:22.363Z,100384.88
2022-07-29T00:23:49.713Z,100386.35
2022-07-29T00:26:16.865Z,100383.77
2022-07-29T00:28:44.241Z,100380.97
2022-07-29T00:31:12.173Z,100382.73
2022-07-29T00:33:39.439Z,100378.76
2022-07-29T00:36:07.118Z,100371.54
2022-07-29T00:38:34.458Z,100371.96
2022-07-29T00:41:01.940Z,100372.77
2022-07-29T00:43:29.378Z,100372.25
2022-07-29T00:45:57.259Z,100368.17
2022-07-29T00:48:24.819Z,100367.04
2022-07-29T00:50:52.485Z,100365.80
2022-07-29T00:53:21.756Z,100368.42
2022-07-29T00:55:49.462Z,100372.83
2022-07-29T00:58:16.900Z,100369.05
2022-07-29T01:00:45.499Z,100371.69
2022-07-29T01:03:13.536Z,100375.05
2022-07-29T01:05:50.429Z,100370.61
2022-07-29T01:08:20.527Z,100369.48
2022-07-29T01:10:48.391Z,100369.37
2022-07-29T01:13:16.475Z,100367.59
2022-07-29T01:15:49.469Z,100368.26
2022-07-29T01:18:25.691Z,100369.92
2022-07-29T01:21:15.095Z,100367.08
2022-07-29T01:23:59.855Z,100363.99
2022-07-29T01:26:59.832Z,100357.41
2022-07-29T01:30:00.324Z,100360.91
2022-07-29T01:32:30.687Z,100363.95
2022-07-29T01:35:16.814Z,100360.20
2022-07-29T01:38:06.804Z,100356.60
2022-07-29T01:40:53.316Z,100356.98
2022-07-29T01:43:30.968Z,100353.42
2022-07-29T01:46:02.234Z,100356.17
2022-07-29T01:48:40.801Z,100354.69
2022-07-29T01:51:21.858Z,100354.02
2022-07-29T01:53:52.077Z,100352.90
2022-07-29T01:56:21.329Z,100347.59
2022-07-29T01:58:50.162Z,100348.08
2022-07-29T02:01:18.297Z,100348.59
2022-07-29T02:03:47.041Z,100344.19
2022-07-29T02:06:17.354Z,100341.99
2022-07-29T02:08:45.116Z,100337.75
2022-07-29T02:11:13.073Z,100335.97
2022-07-29T02:13:41.654Z,100331.51
2022-07-29T02:16:10.293Z,100331.55
2022-07-29T02:18:39.535Z,100329.46
2022-07-29T02:21:07.215Z,100326.33
2022-07-29T02:23:50.641Z,100328.73
2022-07-29T02:26:22.157Z,100326.52
2022-07-29T02:28:51.925Z,100327.67
2022-07-29T02:31:21.053Z,100328.39
2022-07-29T02:33:49.158Z,100327.27
2022-07-29T02:36:18.577Z,100325.23
2022-07-29T02:38:52.401Z,100326.92
2022-07-29T02:41:28.073Z,100326.95
2022-07-29T02:44:03.964Z,100331.63
2022-07-29T02:46:33.904Z,100332.45
2022-07-29T02:49:09.263Z,100334.79
2022-07-29T02:52:26.474Z,100333.55
2022-07-29T02:55:01.276Z,100334.29
2022-07-29T02:57:31.966Z,100338.92
2022-07-29T03:00:01.783Z,100336.19
2022-07-29T03:02:30.215Z,100336.02
2022-07-29T03:04:59.908Z,100332.30
2022-07-29T03:07:28.614Z,100331.36
2022-07-29T03:09:56.053Z,100324.85
2022-07-29T03:12:23.813Z,100329.91
2022-07-29T03:14:52.619Z,100328.19
2022-07-29T03:17:20.197Z,100327.70
2022-07-29T03:19:47.837Z,100329.66
2022-07-29T03:22:15.386Z,100333.84
2022-07-29T03:24:47.761Z,100333.02
2022-07-29T03:27:15.234Z,100330.13
2022-07-29T03:29:49.626Z,100329.73
2022-07-29T03:32:23.922Z,100339.63
2022-07-29T03:34:52.642Z,100339.99
2022-07-29T03:37:19.996Z,100341.45
2022-07-29T03:39:47.765Z,100343.19
2022-07-29T03:42:17.164Z,100348.42
2022-07-29T03:44:46.694Z,100343.29
2022-07-29T03:47:16.603Z,100348.29
2022-07-29T03:49:44.138Z,100355.48
2022-07-29T03:52:11.603Z,100355.96
2022-07-29T03:54:38.975Z,100353.27
2022-07-29T03:57:07.755Z,100356.88
2022-07-29T03:59:35.515Z,100356.87
2022-07-29T04:02:04.562Z,100356.61
2022-07-29T04:04:35.031Z,100350.52
2022-07-29T04:07:02.387Z,100352.86
2022-07-29T04:09:29.734Z,100351.27
2022-07-29T04:12:03.158Z,100349.55
2022-07-29T04:14:36.033Z,100348.68
2022-07-29T04:17:05.050Z,100351.46
2022-07-29T04:19:32.868Z,100351.27
2022-07-29T04:22:01.154Z,100349.34
2022-07-29T04:24:29.373Z,100352.11
2022-07-29T04:26:56.676Z,100349.71
2022-07-29T04:29:23.936Z,100344.08
2022-07-29T04:31:51.498Z,100346.23
2022-07-29T04:34:19.697Z,100342.35
2022-07-29T04:36:47.423Z,100341.12
2022-07-29T04:39:18.061Z,100338.67
2022-07-29T04:41:48.578Z,100342.84
2022-07-29T04:44:16.145Z,100346.34
2022-07-29T04:46:44.767Z,100350.32
2022-07-29T04:49:13.482Z,100349.71
2022-07-29T04:51:41.296Z,100345.48
2022-07-29T04:54:08.954Z,100344.67
2022-07-29T04:56:36.286Z,100341.11
2022-07-29T04:59:03.453Z,100343.47
2022-07-29T05:01:30.890Z,100345.66
2022-07-29T05:04:00.642Z,100347.40
2022-07-29T05:06:28.276Z,100353.05
2022-07-29T05:08:55.527Z,100355.36
2022-07-29T05:11:26.150Z,100357.48
2022-07-29T05:13:57.415Z,100362.60
2022-07-29T05:16:24.807Z,100362.06
2022-07-29T05:18:52.208Z,100354.29
2022-07-29T05:21:19.577Z,100354.64
2022-07-29T05:23:46.955Z,100355.11
2022-07-29T05:26:14.393Z,100352.90
2022-07-29T05:28:41.837Z,100349.12
2022-07-29T05:31:09.247Z,100344.22
2022-07-29T05:33:37.566Z,100341.66
2022-07-29T05:36:08.585Z,100348.23
2022-07-29T05:38:37.115Z,100345.98
2022-07-29T05:41:05.600Z,100345.55
2022-07-29T05:43:33.554Z,100345.95
2022-07-29T05:46:01.222Z,100348.74
2022-07-29T05:48:29.698Z,100348.20
2022-07-29T05:50:57.138Z,100352.33
2022-07-29T05:53:24.398Z,100353.89
2022-07-29T05:55:53.468Z,100353.53
2022-07-29T05:58:21.361Z,100345.90
2022-07-29T06:00:48.600Z,100344.77
2022-07-29T06:03:15.976Z,100343.27
2022-07-29T06:05:43.308Z,100341.95
2022-07-29T06:08:10.671Z,100338.49
2022-07-29T06:10:38.028Z,100339.55
2022-07-29T06:13:05.271Z,100340.17
2022-07-29T06:15:32.769Z,100341.96
2022-07-29T06:18:01.727Z,100340.01
2022-07-29T06:20:33.300Z,100335.41
2022-07-29T06:23:01.044Z,100335.33
2022-07-29T06:25:32.081Z,100339.08
2022-07-29T06:27:59.550Z,100342.60
2022-07-29T06:30:27.089Z,100340.25
2022-07-29T06:32:54.551Z,100340.61
2022-07-29T06:35:38.919Z,100345.29
2022-07-29T06:38:25.631Z,100348.16
2022-07-29T06:41:04.050Z,100350.60
2022-07-29T06:43:35.192Z,100345.00
2022-07-29T06:46:05.880Z,100347.84
2022-07-29T06:48:34.043Z,100347.70
2022-07-29T06:51:01.952Z,100348.45
2022-07-29T06:53:30.222Z,100348.10
2022-07-29T06:55:59.725Z,100347.91
2022-07-29T06:58:28.062Z,100353.15
2022-07-29T07:00:59.218Z,100349.53
2022-07-29T07:03:27.204Z,100344.13
2022-07-29T07:05:55.616Z,100344.69
2022-07-29T07:08:23.663Z,100344.71
2022-07-29T07:10:52.373Z,100348.02
2022-07-29T07:13:20.625Z,100344.57
2022-07-29T07:15:49.724Z,100341.43
2022-07-29T07:18:19.456Z,100337.23
2022-07-29T07:20:47.015Z,100332.63
2022-07-29T07:23:15.501Z,100329.74
2022-07-29T07:25:43.539Z,100327.53
2022-07-29T07:28:11.003Z,100324.22
2022-07-29T07:30:39.635Z,100323.13
2022-07-29T07:33:07.350Z,100326.08
2022-07-29T07:35:34.801Z,100324.10
2022-07-29T07:38:02.059Z,100324.03
2022-07-29T07:40:30.455Z,100321.58
2022-07-29T07:42:58.297Z,100323.06
2022-07-29T07:45:27.028Z,100319.59
2022-07-29T07:47:55.472Z,100321.84
2022-07-29T07:50:23.956Z,100322.85
2022-07-29T07:52:56.627Z,100324.81
2022-07-29T07:55:24.086Z,100326.43
2022-07-29T07:57:51.743Z,100323.13
2022-07-29T08:00:19.209Z,100328.38
2022-07-29T08:02:51.395Z,100324.73
2022-07-29T08:05:19.459Z,100327.11
2022-07-29T08:07:48.125Z,100329.50
2022-07-29T08:10:37.294Z,100327.70
2022-07-29T08:13:06.605Z,100327.92
2022-07-29T08:15:34.045Z,100325.83
2022-07-29T08:18:07.919Z,100316.27
2022-07-29T08:20:37.173Z,100315.89
2022-07-29T08:23:05.868Z,100316.04
2022-07-29T08:25:38.509Z,100314.48
2022-07-29T08:28:07.937Z,100318.03
2022-07-29T08:30:36.207Z,100324.48
2022-07-29T08:33:03.673Z,100324.64
2022-07-29T08:35:35.058Z,100322.95
2022-07-29T08:38:04.916Z,100324.89
2022-07-29T08:40:33.117Z,100326.21
2022-07-29T08:43:06.614Z,100322.13
2022-07-29T08:45:47.282Z,100319.99
2022-07-29T08:48:18.012Z,100317.52
2022-07-29T08:50:46.702Z,100314.23
2022-07-29T08:53:17.778Z,100319.39
2022-07-29T08:55:46.766Z,100315.83
2022-07-29T08:58:15.768Z,100310.15
2022-07-29T09:00:49.515Z,100308.52
2022-07-29T09:03:20.816Z,100307.45
2022-07-29T09:05:49.649Z,100306.67
2022-07-29T09:08:18.633Z,100307.17
2022-07-29T09:10:46.509Z,100307.73
2022-07-29T09:13:14.064Z,100304.70
2022-07-29T09:15:41.421Z,100307.06
2022-07-29T09:18:19.761Z,100303.48
2022-07-29T09:21:28.460Z,100304.45
2022-07-29T09:24:10.578Z,100299.36
2022-07-29T09:26:43.234Z,100301.31
2022-07-29T09:29:16.327Z,100300.84
2022-07-29T09:31:51.390Z,100301.50
2022-07-29T09:34:26.517Z,100303.08
2022-07-29T09:36:56.371Z,100297.59
2022-07-29T09:39:32.863Z,100292.64
2022-07-29T09:42:02.701Z,100295.62
2022-07-29T09:44:47.260Z,100293.42
2022-07-29T09:47:14.849Z,100286.48
2022-07-29T09:50:00.671Z,100287.77
2022-07-29T09:52:29.517Z,100284.38
2022-07-29T09:55:10.093Z,100282.11
2022-07-29T09:57:41.362Z,100284.86
2022-07-29T10:00:17.643Z,100280.86
2022-07-29T10:02:46.463Z,100281.48
2022-07-29T10:05:36.512Z,100278.10
2022-07-29T10:08:05.315Z,100274.48
2022-07-29T10:10:35.910Z,100275.04
2022-07-29T10:13:15.070Z,100278.65
2022-07-29T10:15:46.494Z,100278.73
2022-07-29T10:18:16.424Z,100272.20
2022-07-29T10:20:44.024Z,100274.55
2022-07-29T10:23:11.468Z,100268.11
2022-07-29T10:25:45.628Z,100267.02
2022-07-29T10:28:16.571Z,100264.67
2022-07-29T10:30:47.758Z,100262.64
2022-07-29T10:33:28.244Z,100260.52
2022-07-29T10:36:25.652Z,100257.06
2022-07-29T10:39:44.548Z,100255.64
2022-07-29T10:42:29.711Z,100259.58
2022-07-29T10:45:03.025Z,100259.27
2022-07-29T10:47:32.275Z,100256.77
2022-07-29T10:50:05.265Z,100254.32
2022-07-29T10:52:52.175Z,100251.58
2022-07-29T10:55:44.685Z,100252.45
2022-07-29T10:58:24.013Z,100247.23
2022-07-29T11:00:53.713Z,100247.72
2022-07-29T11:03:52.143Z,100247.56
2022-07-29T11:06:26.633Z,100249.04
2022-07-29T11:09:34.748Z,100251.31
2022-07-29T11:12:03.249Z,100240.19
2022-07-29T11:15:00.403Z,100246.16
2022-07-29T11:17:28.503Z,100240.96
2022-07-29T11:20:37.809Z,100242.00
2022-07-29T11:23:25.652Z,100243.38
2022-07-29T11:26:12.802Z,100241.10
2022-07-29T11:28:53.478Z,100245.88
2022-07-29T11:31:34.039Z,100245.29
2022-07-29T11:34:28.159Z,100240.50
2022-07-29T11:37:12.614Z,100241.70
2022-07-29T11:39:43.622Z,100245.75
2022-07-29T11:42:32.147Z,100243.99
2022-07-29T11:45:44.412Z,100244.77
2022-07-29T11:48:05.869Z,100241.75
2022-07-29T11:50:49.446Z,100246.59
2022-07-29T11:53:17.503Z,100244.92
2022-07-29T11:55:51.217Z,100240.40
2022-07-29T11:58:24.887Z,100244.45
2022-07-29T12:00:55.612Z,100240.60
2022-07-29T12:03:40.839Z,100240.58
2022-07-29T12:06:18.547Z,100242.32
2022-07-29T12:08:48.731Z,100236.72
2022-07-29T12:11:22.360Z,100234.79
2022-07-29T12:13:52.078Z,100228.60
2022-07-29T12:16:25.121Z,100227.21
2022-07-29T12:18:59.379Z,100224.20
2022-07-29T12:21:28.708Z,100222.36
2022-07-29T12:24:04.826Z,100222.27
2022-07-29T12:26:36.151Z,100220.16
2022-07-29T12:29:07.323Z,100214.31
2022-07-29T12:31:43.199Z,100210.98
2022-07-29T12:34:16.141Z,100207.79
2022-07-29T12:36:44.721Z,100203.69
2022-07-29T12:39:12.767Z,100200.45
2022-07-29T12:41:40.454Z,100193.88
2022-07-29T12:44:08.947Z,100195.99
2022-07-29T12:46:36.390Z,100196.61
2022-07-29T12:49:04.725Z,100197.63
2022-07-29T12:51:40.729Z,100197.23
2022-07-29T12:54:13.008Z,100198.85
2022-07-29T12:56:43.561Z,100193.53
2022-07-29T12:59:20.122Z,100188.11
2022-07-29T13:01:50.590Z,100191.37
2022-07-29T13:04:34.784Z,100190.48
2022-07-29T13:07:10.385Z,100184.11
2022-07-29T13:09:49.151Z,100181.27
2022-07-29T13:12:16.769Z,100180.66
2022-07-29T13:14:46.406Z,100175.94
2022-07-29T13:17:20.889Z,100174.16
2022-07-29T13:19:48.455Z,100179.71
2022-07-29T13:22:18.736Z,100177.80
2022-07-29T13:24:56.205Z,100173.05
2022-07-29T13:27:26.353Z,100174.48
2022-07-29T13:29:57.863Z,100174.40
2022-07-29T13:32:27.854Z,100172.80
2022-07-29T13:35:00.733Z,100168.05
2022-07-29T13:37:30.990Z,100164.83
2022-07-29T13:39:58.764Z,100162.46
2022-07-29T13:42:26.332Z,100162.63
2022-07-29T13:44:53.626Z,100157.90
2022-07-29T13:47:21.914Z,100156.06
2022-07-29T13:49:50.572Z,100161.06
2022-07-29T13:52:17.929Z,100163.33
2022-07-29T13:54:45.203Z,100162.30
2022-07-29T13:57:13.642Z,100158.08
2022-07-29T13:59:41.662Z,100159.48
2022-07-29T14:02:09.978Z,100162.56
2022-07-29T14:04:37.487Z,100163.71
2022-07-29T14:07:08.782Z,100151.80
2022-07-29T14:09:41.499Z,100155.85
2022-07-29T14:12:09.967Z,100149.91
2022-07-29T14:14:38.116Z,100148.93
2022-07-29T14:17:08.065Z,100149.99
2022-07-29T14:19:40.571Z,100149.10
2022-07-29T14:22:09.827Z,100145.83
2022-07-29T14:24:38.808Z,100149.63
2022-07-29T14:27:07.344Z,100144.30
2022-07-29T14:29:37.425Z,100146.08
2022-07-29T14:32:08.294Z,100140.80
2022-07-29T14:34:39.598Z,100137.27
2022-07-29T14:37:07.922Z,100142.05
2022-07-29T14:39:43.273Z,100137.17
2022-07-29T14:42:13.049Z,100142.63
2022-07-29T14:44:42.404Z,100144.08
2022-07-29T14:47:09.981Z,100147.86
2022-07-29T14:49:38.052Z,100145.50
2022-07-29T14:52:06.120Z,100143.86
2022-07-29T14:54:33.882Z,100143.66
2022-07-29T14:57:01.355Z,100141.37
2022-07-29T14:59:29.621Z,100136.26
2022-07-29T15:01:57.427Z,100137.73
2022-07-29T15:04:25.054Z,100133.17
2022-07-29T15:06:53.539Z,100135.48
2022-07-29T15:09:20.878Z,100131.41
2022-07-29T15:11:51.711Z,100129.15
2022-07-29T15:14:19.078Z,100131.22
2022-07-29T15:16:48.121Z,100129.28
2022-07-29T15:19:16.355Z,100128.88
2022-07-29T15:21:48.604Z,100127.39
2022-07-29T15:24:19.358Z,100124.95
2022-07-29T15:26:47.616Z,100120.07
2022-07-29T15:29:16.726Z,100120.35
2022-07-29T15:31:44.915Z,100121.33
2022-07-29T15:34:12.566Z,100114.48
2022-07-29T15:36:56.059Z,100116.77
2022-07-29T15:39:24.044Z,100117.85
2022-07-29T15:41:52.141Z,100117.27
2022-07-29T15:44:20.860Z,100119.89
2022-07-29T15:47:04.359Z,100118.34
2022-07-29T15:49:47.689Z,100113.24
2022-07-29T15:52:24.972Z,100116.80
2022-07-29T15:54:58.375Z,100117.92
2022-07-29T15:57:26.412Z,100117.23
2022-07-29T15:59:54.327Z,100117.43
2022-07-29T16:02:22.997Z,100121.81
2022-07-29T16:04:53.314Z,100116.98
2022-07-29T16:07:20.661Z,100117.41
2022-07-29T16:09:52.772Z,100115.85
2022-07-29T16:12:20.695Z,100111.27
2022-07-29T16:14:52.133Z,100107.48
2022-07-29T16:17:21.143Z,100106.30
2022-07-29T16:19:48.933Z,100103.48
2022-07-29T16:22:16.633Z,100097.52
2022-07-29T16:24:44.346Z,100092.59
2022-07-29T16:27:12.595Z,100092.44
2022-07-29T16:29:40.482Z,100090.80
2022-07-29T16:32:08.600Z,100091.21
2022-07-29T16:34:37.011Z,100089.16
2022-07-29T16:37:05.710Z,100089.94
2022-07-29T16:39:33.570Z,100087.56
2022-07-29T16:42:03.176Z,100084.56
2022-07-29T16:44:33.096Z,100086.52
2022-07-29T16:47:02.609Z,100084.80
2022-07-29T16:49:32.414Z,100091.85
2022-07-29T16:51:59.887Z,100085.23
2022-07-29T16:54:28.676Z,100086.75
2022-07-29T16:56:57.037Z,100091.66
2022-07-29T16:59:24.794Z,100093.11
2022-07-29T17:01:52.350Z,100089.48
2022-07-29T17:04:20.035Z,100086.05
2022-07-29T17:06:53.341Z,100084.46
2022-07-29T17:09:21.696Z,100082.71
2022-07-29T17:11:56.416Z,100078.17
2022-07-29T17:14:25.727Z,100078.10
2022-07-29T17:17:01.430Z,100080.45
2022-07-29T17:19:34.013Z,100086.65
2022-07-29T17:22:11.771Z,100091.08
2022-07-29T17:24:44.319Z,100092.45
2022-07-29T17:27:12.508Z,100096.64
2022-07-29T17:29:40.255Z,100099.50
2022-07-29T17:32:09.413Z,100097.95
2022-07-29T17:34:43.053Z,100097.48
2022-07-29T17:37:11.941Z,100098.35
2022-07-29T17:39:41.540Z,100104.77
2022-07-29T17:42:13.653Z,100105.41
2022-07-29T17:44:41.583Z,100107.30
2022-07-29T17:47:15.693Z,100114.98
2022-07-29T17:49:46.184Z,100111.05
2022-07-29T17:52:13.694Z,100113.38
2022-07-29T17:54:41.630Z,100114.02
2022-07-29T17:57:09.210Z,100110.98
2022-07-29T17:59:37.281Z,100110.86
2022-07-29T18:02:04.730Z,100108.42
2022-07-29T18:04:32.015Z,100111.44
2022-07-29T18:06:59.728Z,100115.02
2022-07-29T18:09:27.343Z,100116.45
2022-07-29T18:11:56.612Z,100118.16
2022-07-29T18:14:24.115Z,100117.64
2022-07-29T18:16:52.861Z,100117.64
2022-07-29T18:19:20.318Z,100118.01
2022-07-29T18:21:54.641Z,100120.48
2022-07-29T18:24:25.986Z,100120.42
2022-07-29T18:26:53.866Z,100120.59
2022-07-29T18:29:21.718Z,100116.36
2022-07-29T18:31:49.304Z,100115.36
2022-07-29T18:34:17.677Z,100121.27
2022-07-29T18:36:46.225Z,100119.02
2022-07-29T18:39:15.433Z,100116.48
2022-07-29T18:41:49.972Z,100113.05
2022-07-29T18:44:21.837Z,100110.64
2022-07-29T18:46:52.338Z,100111.29
2022-07-29T18:49:20.277Z,100110.61
2022-07-29T18:51:48.383Z,100110.23
2022-07-29T18:54:16.057Z,100109.30
2022-07-29T18:56:49.215Z,100109.45
2022-07-29T18:59:20.074Z,100109.75
2022-07-29T19:01:49.147Z,100108.38
2022-07-29T19:04:17.981Z,100105.06
2022-07-29T19:06:45.520Z,100106.42
2022-07-29T19:09:12.875Z,100110.98
2022-07-29T19:11:40.655Z,100108.89
2022-07-29T19:14:08.103Z,100109.48
2022-07-29T19:16:35.911Z,100110.89
2022-07-29T19:19:03.416Z,100105.70
2022-07-29T19:21:31.185Z,100107.89
2022-07-29T19:24:05.220Z,100106.48
2022-07-29T19:26:36.799Z,100107.55
2022-07-29T19:29:04.827Z,100106.64
2022-07-29T19:31:32.289Z,100111.34
2022-07-29T19:33:59.722Z,100112.92
2022-07-29T19:36:27.806Z,100112.02
2022-07-29T19:38:55.051Z,100108.50
2022-07-29T19:41:22.417Z,100107.37
2022-07-29T19:43:52.873Z,100109.27
2022-07-29T19:46:24.473Z,100104.04
2022-07-29T19:48:53.447Z,100103.34
2022-07-29T19:51:21.254Z,100099.20
2022-07-29T19:53:49.022Z,100099.34
2022-07-29T19:56:16.574Z,100102.55
2022-07-29T19:58:44.945Z,100104.73
2022-07-29T20:01:13.036Z,100113.36
2022-07-29T20:03:40.494Z,100115.52
2022-07-29T20:06:08.042Z,100121.30
2022-07-29T20:08:35.502Z,100121.39
2022-07-29T20:11:03.874Z,100119.17
2022-07-29T20:13:33.509Z,100122.34
2022-07-29T20:16:06.412Z,100123.25
2022-07-29T20:18:34.034Z,100121.36
2022-07-29T20:21:01.800Z,100119.03
2022-07-29T20:23:33.371Z,100121.23
2022-07-29T20:26:01.214Z,100124.27
2022-07-29T20:28:28.574Z,100127.52
2022-07-29T20:30:56.102Z,100125.23
2022-07-29T20:33:23.479Z,100128.95
2022-07-29T20:35:51.573Z,100127.89
2022-07-29T20:38:18.815Z,100129.39
2022-07-29T20:40:46.282Z,100126.73
2022-07-29T20:43:13.714Z,100126.79
2022-07-29T20:45:40.959Z,100124.13
2022-07-29T20:48:08.517Z,100129.82
2022-07-29T20:50:36.396Z,100133.42
2022-07-29T20:53:04.164Z,100136.50
2022-07-29T20:55:32.322Z,100134.98
2022-07-29T20:57:59.586Z,100134.30
2022-07-29T21:00:26.830Z,100132.70
2022-07-29T21:02:54.587Z,100132.36
2022-07-29T21:05:21.963Z,100128.31
2022-07-29T21:07:49.508Z,100127.00
2022-07-29T21:10:18.720Z,100121.95
2022-07-29T21:12:49.054Z,100114.26
2022-07-29T21:15:16.690Z,100110.41
2022-07-29T21:17:47.656Z,100110.87
2022-07-29T21:20:19.801Z,100111.41
2022-07-29T21:22:50.446Z,100107.21
2022-07-29T21:25:18.298Z,100102.70
2022-07-29T21:28:08.002Z,100106.95
2022-07-29T21:30:35.642Z,100110.37
2022-07-29T21:33:04.107Z,100097.50
2022-07-29T21:36:06.227Z,100096.98
2022-07-29T21:38:19.855Z,100093.65
2022-07-29T21:40:49.099Z,100093.83
2022-07-29T21:43:18.445Z,100097.31
2022-07-29T21:45:50.841Z,100107.15
2022-07-29T21:48:21.960Z,100107.11
2022-07-29T21:50:50.122Z,100105.23
2022-07-29T21:53:18.096Z,100104.02
2022-07-29T21:55:51.010Z,100109.95
2022-07-29T21:58:18.725Z,100114.39
2022-07-29T22:00:45.979Z,100110.77
2022-07-29T22:03:13.338Z,100104.94
2022-07-29T22:05:40.565Z,100099.33
2022-07-29T22:08:08.269Z,100094.91
2022-07-29T22:10:36.344Z,100088.20
2022-07-29T22:13:04.299Z,100089.34
2022-07-29T22:15:31.957Z,100090.46
2022-07-29T22:17:59.605Z,100097.00
2022-07-29T22:20:27.272Z,100099.98
2022-07-29T22:22:54.755Z,100096.23
2022-07-29T22:25:23.494Z,100088.58
2022-07-29T22:27:50.651Z,100078.39
2022-07-29T22:30:18.014Z,100070.40
2022-07-29T22:32:45.295Z,100066.30
2022-07-29T22:35:13.035Z,100072.52
2022-07-29T22:37:40.405Z,100074.99
2022-07-29T22:40:08.580Z,100069.35
2022-07-29T22:42:35.920Z,100062.39
2022-07-29T22:45:09.811Z,100059.71
2022-07-29T22:47:45.802Z,100055.79
2022-07-29T22:50:15.088Z,100054.98
2022-07-29T22:52:42.435Z,100056.16
2022-07-29T22:55:11.238Z,100057.27
2022-07-29T22:57:38.578Z,100056.34
2022-07-29T23:00:07.261Z,100052.97
2022-07-29T23:02:37.497Z,100047.19
2022-07-29T23:05:05.594Z,100044.44
2022-07-29T23:07:34.853Z,100041.47
2022-07-29T23:10:02.519Z,100043.98
2022-07-29T23:12:29.771Z,100044.14
2022-07-29T23:14:56.883Z,100045.00
2022-07-29T23:17:24.376Z,100038.30
2022-07-29T23:19:51.635Z,100035.17
2022-07-29T23:22:18.983Z,100029.77
2022-07-29T23:24:46.236Z,100027.00
2022-07-29T23:27:13.595Z,100020.41
2022-07-29T23:29:41.079Z,100021.38
2022-07-29T23:32:09.857Z,100026.40
2022-07-29T23:34:37.195Z,100027.27
2022-07-29T23:37:05.061Z,100026.89
2022-07-29T23:39:32.324Z,100025.27
2022-07-29T23:41:59.559Z,100017.31
2022-07-29T23:44:26.710Z,100016.86
2022-07-29T23:46:54.083Z,100020.98
2022-07-29T23:49:21.584Z,100018.89
2022-07-29T23:51:49.096Z,100016.26
2022-07-29T23:54:16.555Z,100016.74
2022-07-29T23:56:43.798Z,100014.46
2022-07-29T23:59:14.131Z,100017.09
